CheckWX is a tool to help pilots better visualize weather data.  It is not intended as a substitute for an official pre-flight weather briefing.

07:22:43 UTC

PADE METAR
Deering Airport
Deering, Alaska, USA
Current

10 hours ago

PADE 212053Z AUTO 25027KT 1/4SM HZ VV005 M25/M28 A2944 RMK AO2 PK WND 25032/2024 UPE00 SLP969 P0000 60000 T12501283 51015 TSNO $
Observed
Feb-21 @ 20:53 UTC
Wind
  • 250° at 27 KTS
Visibility
1/4 SM
Flight Rules
LIFR
Conditions
Haze
Cloud Levels
  • Vertical visibility at 500' AGL
Temperature
-25°C / -13°F
Dewpoint
-28°C / -18°F
Humidity
76%
Altimeter
29.44" Hg
Pressure
996.92 hPa
Current Rain
0.01"
Previous

14 hours ago

PADE 211653Z AUTO 25026KT 1/2SM SN VV006 M25/M28 A2937 RMK AO2 PK WND 25034/1611 UPE51SNB25E39B51 SLP947 P0000 T12501283 TSNO $
Observed
Feb-21 @ 16:53 UTC
Wind
  • 250° at 26 KTS
Visibility
1/2 SM
Flight Rules
LIFR
Conditions
Snow
Cloud Levels
  • Vertical visibility at 600' AGL
Temperature
-25°C / -13°F
Dewpoint
-28°C / -18°F
Humidity
76%
Altimeter
29.37" Hg
Pressure
994.62 hPa
Current Rain
0.01"
Previous

16 hours ago

PADE 211523Z AUTO 25026G32KT 1/2SM SN VV007 M25/M28 A2936 RMK AO2 PK WND 25032/1521 UPB1457E23SNE1457B08E18B23 P0000 T12501283 TSNO $
Observed
Feb-21 @ 15:23 UTC
Wind
  • 250° at 26 KTS
  • Gusting to 32 KTS
Visibility
1/2 SM
Flight Rules
LIFR
Conditions
Snow
Cloud Levels
  • Vertical visibility at 700' AGL
Temperature
-25°C / -13°F
Dewpoint
-28°C / -18°F
Humidity
76%
Altimeter
29.36" Hg
Pressure
994.22 hPa
Current Rain
0.01"